logo
Search for airport 
image banner adimage banner adimage banner ad
image banner ad

ESVE - Stegeborg

Located in , Sweden

ICAO - , IATA -

Data provided by Airmate  

General information

Coordinates: N58°25'60" E16°36'18"
Elevation is 6 feet MSL.
 
View others Airports in Östergötlands län

Operational data

Special qualification required
Current time UTC:
Current local time:
Weather at : ESSP - Norrkoping/Kungsangen ( 27 km )
METAR: ESSP 140150Z AUTO VRB02KT 4700 DZ OVC003/// 08/08 Q1000
View NOTAMs / SUP AIP / TFR affecting this airport [VIEW]
Communications frequencies: [VIEW]

Runways:

RWY identifierQFULength (ft)Width (ft)SurfaceLDA (ft)
08262598GRASS
26262598GRASS

Airport contact information

Address: Sweden

Satellite view of ESVE